createdAt,value
2019-03-02T00:00:08.366Z,-0.53
2019-03-02T00:01:19.328Z,-0.53
2019-03-02T00:02:30.305Z,-0.49
2019-03-02T00:03:40.784Z,-0.46
2019-03-02T00:04:54.142Z,-0.39
2019-03-02T00:06:05.987Z,-0.41
2019-03-02T00:07:16.959Z,-0.48
2019-03-02T00:08:30.045Z,-0.33
2019-03-02T00:09:40.210Z,-0.38
2019-03-02T00:10:50.699Z,-0.36
2019-03-02T00:12:02.154Z,-0.39
2019-03-02T00:13:13.408Z,-0.39
2019-03-02T00:14:24.165Z,-0.42
2019-03-02T00:15:35.682Z,-0.38
2019-03-02T00:16:48.236Z,-0.39
2019-03-02T00:18:00.004Z,-0.38
2019-03-02T00:19:11.722Z,-0.38
2019-03-02T00:20:23.025Z,-0.42
2019-03-02T00:21:36.292Z,-0.39
2019-03-02T00:22:48.529Z,-0.41
2019-03-02T00:23:59.326Z,-0.38
2019-03-02T00:25:09.252Z,-0.42
2019-03-02T00:26:19.172Z,-0.36
2019-03-02T00:27:29.092Z,-0.39
2019-03-02T00:28:40.416Z,-0.44
2019-03-02T00:29:51.561Z,-0.42
2019-03-02T00:31:02.767Z,-0.3
2019-03-02T00:32:14.568Z,-0.31
2019-03-02T00:33:25.849Z,-0.35
2019-03-02T00:34:36.910Z,-0.3
2019-03-02T00:35:48.601Z,-0.27
2019-03-02T00:37:00.992Z,-0.39
2019-03-02T00:38:13.751Z,-0.38
2019-03-02T00:39:24.646Z,-0.39
2019-03-02T00:40:36.321Z,-0.33
2019-03-02T00:41:47.153Z,-0.38
2019-03-02T00:42:57.642Z,-0.33
2019-03-02T00:44:08.687Z,-0.35
2019-03-02T00:45:20.129Z,-0.42
2019-03-02T00:46:29.796Z,-0.38
2019-03-02T00:47:41.028Z,-0.38
2019-03-02T00:48:51.811Z,-0.38
2019-03-02T00:50:05.554Z,-0.36
2019-03-02T00:51:16.081Z,-0.49
2019-03-02T00:52:28.430Z,-0.48
2019-03-02T00:53:40.417Z,-0.44
2019-03-02T00:55:00.568Z,-0.48
2019-03-02T00:56:12.848Z,-0.53
2019-03-02T00:57:23.648Z,-0.49
2019-03-02T00:58:34.639Z,-0.48
2019-03-02T00:59:45.140Z,-0.54
2019-03-02T01:00:58.572Z,-0.54
2019-03-02T01:02:09.382Z,-0.48
2019-03-02T01:03:20.587Z,-0.48
2019-03-02T01:04:31.566Z,-0.62
2019-03-02T01:05:42.052Z,-0.57
2019-03-02T01:06:53.671Z,-0.62
2019-03-02T01:08:04.766Z,-0.62
2019-03-02T01:09:16.582Z,-0.62
2019-03-02T01:10:27.553Z,-0.6
2019-03-02T01:11:38.897Z,-0.72
2019-03-02T01:12:50.040Z,-0.7
2019-03-02T01:14:01.434Z,-0.72
2019-03-02T01:15:13.300Z,-0.75
2019-03-02T01:16:24.890Z,-0.74
2019-03-02T01:17:36.431Z,-0.77
2019-03-02T01:18:47.299Z,-0.74
2019-03-02T01:19:58.648Z,-0.7
2019-03-02T01:21:09.779Z,-0.77
2019-03-02T01:22:22.072Z,-0.75
2019-03-02T01:23:33.512Z,-0.75
2019-03-02T01:24:43.856Z,-0.74
2019-03-02T01:25:54.314Z,-0.67
2019-03-02T01:27:05.412Z,-0.62
2019-03-02T01:28:15.536Z,-0.69
2019-03-02T01:29:25.279Z,-0.59
2019-03-02T01:30:35.791Z,-0.54
2019-03-02T01:31:46.595Z,-0.57
2019-03-02T01:32:57.451Z,-0.63
2019-03-02T01:34:10.908Z,-0.54
2019-03-02T01:35:22.768Z,-0.54
2019-03-02T01:36:34.764Z,-0.63
2019-03-02T01:37:48.573Z,-0.49
2019-03-02T01:38:59.652Z,-0.54
2019-03-02T01:40:11.084Z,-0.51
2019-03-02T01:41:22.613Z,-0.54
2019-03-02T01:42:34.593Z,-0.42
2019-03-02T01:43:46.125Z,-0.39
2019-03-02T01:44:56.545Z,-0.3
2019-03-02T01:46:08.306Z,-0.24
2019-03-02T01:47:21.571Z,-0.06
2019-03-02T01:48:32.722Z,-0.1
2019-03-02T01:49:42.641Z,0.09
2019-03-02T01:50:53.723Z,0.01
2019-03-02T01:52:03.677Z,0.06
2019-03-02T01:53:14.770Z,0.08
2019-03-02T01:54:26.227Z,0.06
2019-03-02T01:55:36.934Z,0.09
2019-03-02T01:56:47.482Z,0.08
2019-03-02T01:57:58.026Z,0.13
2019-03-02T01:59:08.900Z,0.11
2019-03-02T02:00:19.387Z,0.16
2019-03-02T02:01:30.610Z,0.2
2019-03-02T02:02:41.960Z,0.27
2019-03-02T02:03:52.826Z,0.18
2019-03-02T02:05:03.219Z,0.18
2019-03-02T02:06:13.611Z,0.18
2019-03-02T02:07:24.148Z,0.16
2019-03-02T02:08:34.702Z,0.24
2019-03-02T02:09:45.469Z,0.15
2019-03-02T02:10:55.381Z,0.29
2019-03-02T02:12:05.297Z,0.23
2019-03-02T02:13:15.215Z,0.18
2019-03-02T02:14:25.140Z,0.18
2019-03-02T02:15:35.240Z,0.12
2019-03-02T02:16:46.745Z,0.06
2019-03-02T02:17:57.877Z,0.09
2019-03-02T02:19:08.162Z,0.15
2019-03-02T02:20:19.572Z,0.11
2019-03-02T02:21:31.509Z,0.09
2019-03-02T02:22:42.814Z,0.12
2019-03-02T02:23:54.746Z,0.01
2019-03-02T02:25:06.449Z,-0.03
2019-03-02T02:26:17.345Z,-0.03
2019-03-02T02:27:27.944Z,0.02
2019-03-02T02:28:38.283Z,-0.05
2019-03-02T02:29:49.130Z,-0.12
2019-03-02T02:31:08.118Z,-0.23
2019-03-02T02:32:25.823Z,-0.24
2019-03-02T02:33:42.193Z,-0.39
2019-03-02T02:34:56.326Z,-0.46
2019-03-02T02:36:14.000Z,-0.54
2019-03-02T02:37:32.128Z,-0.64
2019-03-02T02:38:53.551Z,-0.7
2019-03-02T02:40:07.918Z,-0.75
2019-03-02T02:41:27.660Z,-0.72
2019-03-02T02:42:43.135Z,-0.78
2019-03-02T02:44:01.651Z,-0.8
2019-03-02T02:45:19.519Z,-0.75
2019-03-02T02:46:37.066Z,-0.77
2019-03-02T02:47:56.968Z,-0.89
2019-03-02T02:49:14.018Z,-0.84
2019-03-02T02:50:33.998Z,-0.78
2019-03-02T02:51:50.979Z,-0.74
2019-03-02T02:53:08.874Z,-0.74
2019-03-02T02:54:25.388Z,-0.66
2019-03-02T02:55:40.755Z,-0.53
2019-03-02T02:56:54.050Z,-0.62
2019-03-02T02:58:06.575Z,-0.63
2019-03-02T02:59:24.495Z,-0.59
2019-03-02T03:00:35.700Z,-0.59
2019-03-02T03:01:45.516Z,-0.59
2019-03-02T03:02:55.487Z,-0.6
2019-03-02T03:04:05.789Z,-0.66
2019-03-02T03:05:20.189Z,-0.62
2019-03-02T03:06:35.214Z,-0.77
2019-03-02T03:07:55.869Z,-0.72
2019-03-02T03:09:14.099Z,-0.74
2019-03-02T03:10:30.552Z,-0.7
2019-03-02T03:11:48.636Z,-0.72
2019-03-02T03:13:04.623Z,-0.74
2019-03-02T03:14:19.775Z,-0.74
2019-03-02T03:15:39.023Z,-0.67
2019-03-02T03:16:53.999Z,-0.63
2019-03-02T03:18:12.167Z,-0.63
2019-03-02T03:19:25.985Z,-0.56
2019-03-02T03:20:47.525Z,-0.62
2019-03-02T03:22:02.110Z,-0.62
2019-03-02T03:23:19.828Z,-0.56
2019-03-02T03:24:39.837Z,-0.56
2019-03-02T03:25:58.899Z,-0.54
2019-03-02T03:27:13.188Z,-0.59
2019-03-02T03:28:30.504Z,-0.62
2019-03-02T03:29:44.370Z,-0.63
2019-03-02T03:30:57.336Z,-0.66
2019-03-02T03:32:16.389Z,-0.63
2019-03-02T03:33:26.566Z,-0.66
2019-03-02T03:34:52.762Z,-0.74
2019-03-02T03:36:02.712Z,-0.7
2019-03-02T03:37:15.864Z,-0.8
2019-03-02T03:38:31.917Z,-0.72
2019-03-02T03:39:46.250Z,-0.77
2019-03-02T03:41:00.060Z,-0.84
2019-03-02T03:42:22.169Z,-0.8
2019-03-02T03:43:41.382Z,-0.85
2019-03-02T03:44:52.146Z,-0.89
2019-03-02T03:46:05.139Z,-0.85
2019-03-02T03:47:15.063Z,-0.85
2019-03-02T03:48:25.004Z,-1.01
2019-03-02T03:49:39.205Z,-0.96
2019-03-02T03:50:55.054Z,-0.87
2019-03-02T03:52:13.440Z,-0.87
2019-03-02T03:53:31.798Z,-0.85
2019-03-02T03:54:47.916Z,-0.96
2019-03-02T03:56:06.122Z,-0.85
2019-03-02T03:57:21.479Z,-0.96
2019-03-02T03:58:34.935Z,-1.01
2019-03-02T03:59:47.580Z,-1.04
2019-03-02T04:01:05.834Z,-1.11
2019-03-02T04:02:26.021Z,-1.11
2019-03-02T04:03:46.909Z,-1.14
2019-03-02T04:05:10.433Z,-1.06
2019-03-02T04:06:23.288Z,-1.09
2019-03-02T04:07:36.901Z,-1.15
2019-03-02T04:08:54.304Z,-1.17
2019-03-02T04:10:08.685Z,-1.14
2019-03-02T04:11:18.629Z,-1.15
2019-03-02T04:12:29.373Z,-1.17
2019-03-02T04:13:49.028Z,-1.19
2019-03-02T04:15:05.942Z,-1.14
2019-03-02T04:16:22.836Z,-1.17
2019-03-02T04:17:38.972Z,-1.21
2019-03-02T04:18:57.869Z,-1.11
2019-03-02T04:20:16.949Z,-1.11
2019-03-02T04:21:32.384Z,-1.15
2019-03-02T04:22:47.186Z,-1.14
2019-03-02T04:24:05.891Z,-1.11
2019-03-02T04:25:22.349Z,-1.17
2019-03-02T04:26:41.131Z,-1.03
2019-03-02T04:27:58.728Z,-1.04
2019-03-02T04:29:14.261Z,-0.97
2019-03-02T04:30:35.494Z,-0.84
2019-03-02T04:31:53.016Z,-0.78
2019-03-02T04:33:10.188Z,-0.78
2019-03-02T04:34:25.582Z,-0.75
2019-03-02T04:35:38.824Z,-0.77
2019-03-02T04:36:52.396Z,-0.74
2019-03-02T04:38:05.645Z,-0.75
2019-03-02T04:39:18.700Z,-0.77
2019-03-02T04:40:33.643Z,-0.77
2019-03-02T04:41:44.466Z,-0.87
2019-03-02T04:42:55.199Z,-0.87
2019-03-02T04:44:05.114Z,-0.84
2019-03-02T04:45:15.028Z,-0.87
2019-03-02T04:46:25.097Z,-0.93
2019-03-02T04:47:35.009Z,-0.99
2019-03-02T04:48:44.680Z,-0.96
2019-03-02T04:49:56.280Z,-1
2019-03-02T04:51:07.484Z,-1.14
2019-03-02T04:52:19.378Z,-1.09
2019-03-02T04:53:29.905Z,-1.06
2019-03-02T04:54:42.533Z,-1.17
2019-03-02T04:55:53.556Z,-1.19
2019-03-02T04:57:04.591Z,-1.22
2019-03-02T04:58:16.896Z,-1.3
2019-03-02T04:59:27.824Z,-1.38
2019-03-02T05:00:37.917Z,-1.38
2019-03-02T05:01:50.910Z,-1.43
2019-03-02T05:03:00.967Z,-1.5
2019-03-02T05:04:11.028Z,-1.69
2019-03-02T05:05:20.951Z,-1.64
2019-03-02T05:06:30.611Z,-1.64
2019-03-02T05:07:40.543Z,-1.72
2019-03-02T05:08:50.461Z,-1.78
2019-03-02T05:10:00.503Z,-1.89
2019-03-02T05:11:10.416Z,-1.96
2019-03-02T05:12:20.376Z,-2
2019-03-02T05:13:33.287Z,-2.07
2019-03-02T05:14:45.043Z,-2.13
2019-03-02T05:15:57.194Z,-2.11
2019-03-02T05:17:09.840Z,-2.2
2019-03-02T05:18:22.961Z,-2.23
2019-03-02T05:19:34.614Z,-2.33
2019-03-02T05:20:46.893Z,-2.37
2019-03-02T05:21:56.703Z,-2.34
2019-03-02T05:23:06.620Z,-2.33
2019-03-02T05:24:16.541Z,-2.32
2019-03-02T05:25:26.462Z,-2.25
2019-03-02T05:26:36.453Z,-2.34
2019-03-02T05:27:46.368Z,-2.34
2019-03-02T05:28:56.285Z,-2.18
2019-03-02T05:30:06.202Z,-2.32
2019-03-02T05:31:16.369Z,-2.28
2019-03-02T05:32:26.336Z,-2.39
2019-03-02T05:33:36.259Z,-2.36
2019-03-02T05:34:45.936Z,-2.22
2019-03-02T05:35:56.552Z,-2.23
2019-03-02T05:37:07.887Z,-2.2
2019-03-02T05:38:20.130Z,-2.17
2019-03-02T05:39:30.050Z,-2.18
2019-03-02T05:40:39.960Z,-2.25
2019-03-02T05:41:49.875Z,-2.22
2019-03-02T05:43:00.849Z,-2.23
2019-03-02T05:44:10.934Z,-2.23
2019-03-02T05:45:23.741Z,-2.18
2019-03-02T05:46:33.891Z,-2.22
2019-03-02T05:47:43.824Z,-2.18
2019-03-02T05:48:53.739Z,-2.14
2019-03-02T05:50:03.703Z,-2.18
2019-03-02T05:51:13.619Z,-2.14
2019-03-02T05:52:23.642Z,-2.15
2019-03-02T05:53:35.121Z,-2.05
2019-03-02T05:54:46.389Z,-1.99
2019-03-02T05:55:58.713Z,-1.94
2019-03-02T05:57:09.999Z,-1.84
2019-03-02T05:58:21.657Z,-1.76
2019-03-02T05:59:32.658Z,-1.76
2019-03-02T06:00:43.760Z,-1.71
2019-03-02T06:01:53.765Z,-1.68
2019-03-02T06:03:03.676Z,-1.58
2019-03-02T06:04:13.594Z,-1.58
2019-03-02T06:05:27.349Z,-1.53
2019-03-02T06:06:37.264Z,-1.63
2019-03-02T06:07:47.336Z,-1.53
2019-03-02T06:08:59.155Z,-1.54
2019-03-02T06:10:09.075Z,-1.43
2019-03-02T06:11:21.353Z,-1.51
2019-03-02T06:12:31.070Z,-1.56
2019-03-02T06:13:41.041Z,-1.5
2019-03-02T06:14:50.959Z,-1.53
2019-03-02T06:16:00.879Z,-1.5
2019-03-02T06:17:10.794Z,-1.54
2019-03-02T06:18:20.720Z,-1.51
2019-03-02T06:19:30.690Z,-1.56
2019-03-02T06:20:41.556Z,-1.63
2019-03-02T06:21:52.299Z,-1.63
2019-03-02T06:23:02.214Z,-1.68
2019-03-02T06:24:12.126Z,-1.74
2019-03-02T06:25:26.240Z,-1.75
2019-03-02T06:26:37.996Z,-1.6
2019-03-02T06:27:51.964Z,-1.69
2019-03-02T06:29:02.730Z,-1.61
2019-03-02T06:30:13.277Z,-1.58
2019-03-02T06:31:24.078Z,-1.64
2019-03-02T06:32:36.007Z,-1.64
2019-03-02T06:33:49.070Z,-1.66
2019-03-02T06:35:00.795Z,-1.69
2019-03-02T06:36:13.843Z,-1.58
2019-03-02T06:37:24.924Z,-1.61
2019-03-02T06:38:36.980Z,-1.71
2019-03-02T06:39:49.306Z,-1.72
2019-03-02T06:41:03.050Z,-1.78
2019-03-02T06:42:14.742Z,-1.78
2019-03-02T06:43:26.763Z,-1.87
2019-03-02T06:44:38.987Z,-1.87
2019-03-02T06:45:49.187Z,-1.82
2019-03-02T06:47:00.766Z,-1.93
2019-03-02T06:48:14.482Z,-1.84
2019-03-02T06:49:25.921Z,-1.82
2019-03-02T06:50:38.133Z,-1.81
2019-03-02T06:51:49.899Z,-1.75
2019-03-02T06:53:03.961Z,-1.76
2019-03-02T06:54:17.614Z,-1.71
2019-03-02T06:55:30.312Z,-1.72
2019-03-02T06:56:42.162Z,-1.66
2019-03-02T06:57:55.040Z,-1.68
2019-03-02T06:59:06.748Z,-1.64
2019-03-02T07:00:18.861Z,-1.69
2019-03-02T07:01:29.860Z,-1.75
2019-03-02T07:02:40.590Z,-1.74
2019-03-02T07:03:51.501Z,-1.66
2019-03-02T07:05:02.887Z,-1.6
2019-03-02T07:06:17.375Z,-1.64
2019-03-02T07:07:27.637Z,-1.66
2019-03-02T07:08:39.498Z,-1.66
2019-03-02T07:09:50.111Z,-1.66
2019-03-02T07:11:02.791Z,-1.51
2019-03-02T07:12:14.312Z,-1.54
2019-03-02T07:13:26.188Z,-1.45
2019-03-02T07:14:37.186Z,-1.51
2019-03-02T07:15:49.557Z,-1.42
2019-03-02T07:17:00.834Z,-1.42
2019-03-02T07:18:12.724Z,-1.42
2019-03-02T07:19:22.637Z,-1.4
2019-03-02T07:20:33.055Z,-1.39
2019-03-02T07:21:47.198Z,-1.35
2019-03-02T07:22:58.052Z,-1.43
2019-03-02T07:24:07.967Z,-1.45
2019-03-02T07:25:19.518Z,-1.38
2019-03-02T07:26:29.193Z,-1.29
2019-03-02T07:27:39.103Z,-1.29
2019-03-02T07:28:49.113Z,-1.33
2019-03-02T07:29:59.905Z,-1.33
2019-03-02T07:31:09.824Z,-1.36
2019-03-02T07:32:20.343Z,-1.4
2019-03-02T07:33:30.259Z,-1.32
2019-03-02T07:34:45.797Z,-1.27
2019-03-02T07:35:58.102Z,-1.33
2019-03-02T07:37:11.630Z,-1.22
2019-03-02T07:38:24.974Z,-1.21
2019-03-02T07:39:39.059Z,-1.18
2019-03-02T07:40:50.410Z,-1.14
2019-03-02T07:42:02.835Z,-1.17
2019-03-02T07:43:14.657Z,-1.09
2019-03-02T07:44:27.159Z,-1.11
2019-03-02T07:45:39.884Z,-1.01
2019-03-02T07:46:52.917Z,-1.01
2019-03-02T07:48:05.289Z,-0.99
2019-03-02T07:49:17.674Z,-0.87
2019-03-02T07:50:32.173Z,-0.89
2019-03-02T07:51:43.942Z,-0.77
2019-03-02T07:52:55.595Z,-0.66
2019-03-02T07:54:08.482Z,-0.63
2019-03-02T07:55:22.698Z,-0.46
2019-03-02T07:56:34.952Z,-0.38
2019-03-02T07:57:46.186Z,-0.35
2019-03-02T07:58:57.389Z,-0.33
2019-03-02T08:00:10.532Z,-0.17
2019-03-02T08:01:21.543Z,-0.17
2019-03-02T08:02:34.523Z,-0.1
2019-03-02T08:03:44.445Z,0.08
2019-03-02T08:04:54.361Z,0.15
2019-03-02T08:06:06.178Z,0.12
2019-03-02T08:07:16.121Z,0.18
2019-03-02T08:08:26.146Z,0.23
2019-03-02T08:09:36.067Z,0.3
2019-03-02T08:10:45.979Z,0.42
2019-03-02T08:11:55.896Z,0.45
2019-03-02T08:13:07.947Z,0.45
2019-03-02T08:14:18.615Z,0.48
2019-03-02T08:15:30.423Z,0.59
2019-03-02T08:16:42.638Z,0.55
2019-03-02T08:17:54.090Z,0.7
2019-03-02T08:19:06.404Z,0.7
2019-03-02T08:20:16.602Z,0.76
2019-03-02T08:21:32.397Z,0.82
2019-03-02T08:22:46.222Z,0.74
2019-03-02T08:23:56.297Z,0.82
2019-03-02T08:25:06.239Z,0.84
2019-03-02T08:26:16.152Z,0.86
2019-03-02T08:27:30.757Z,0.88
2019-03-02T08:28:45.769Z,0.94
2019-03-02T08:29:59.572Z,0.99
2019-03-02T08:31:13.388Z,1.03
2019-03-02T08:32:26.336Z,0.96
2019-03-02T08:33:48.050Z,0.99
2019-03-02T08:34:57.974Z,0.95
2019-03-02T08:36:07.927Z,1.03
2019-03-02T08:37:22.240Z,1.02
2019-03-02T08:38:35.668Z,1.12
2019-03-02T08:39:49.181Z,1.06
2019-03-02T08:41:02.935Z,1.16
2019-03-02T08:42:14.729Z,1.09
2019-03-02T08:43:24.661Z,1.06
2019-03-02T08:44:35.038Z,1.2
2019-03-02T08:45:45.037Z,1.06
2019-03-02T08:46:54.955Z,1.09
2019-03-02T08:48:04.942Z,1.09
2019-03-02T08:49:14.869Z,1.18
2019-03-02T08:50:24.803Z,1.2
2019-03-02T08:51:34.744Z,1.27
2019-03-02T08:52:44.660Z,1.2
2019-03-02T08:53:54.682Z,1.32
2019-03-02T08:55:04.603Z,1.31
2019-03-02T08:56:16.734Z,1.34
2019-03-02T08:57:28.045Z,1.38
2019-03-02T08:58:37.962Z,1.38
2019-03-02T08:59:47.750Z,1.43
2019-03-02T09:00:57.670Z,1.34
2019-03-02T09:02:07.590Z,1.36
2019-03-02T09:03:17.528Z,1.3
2019-03-02T09:04:27.457Z,1.43
2019-03-02T09:05:55.529Z,1.38
2019-03-02T09:07:07.719Z,1.31
2019-03-02T09:08:19.115Z,1.4
2019-03-02T09:09:28.791Z,1.48
2019-03-02T09:10:39.525Z,1.56
2019-03-02T09:11:51.140Z,1.52
2019-03-02T09:13:04.378Z,1.66
2019-03-02T09:14:17.152Z,1.75
2019-03-02T09:15:32.659Z,1.88
2019-03-02T09:16:44.918Z,2.01
2019-03-02T09:18:00.461Z,2.03
2019-03-02T09:19:10.387Z,2.04
2019-03-02T09:20:22.127Z,2.22
2019-03-02T09:21:32.071Z,2.21
2019-03-02T09:22:41.994Z,2.25
2019-03-02T09:23:54.147Z,2.26
2019-03-02T09:25:04.110Z,2.23
2019-03-02T09:26:14.957Z,2.36
2019-03-02T09:27:25.052Z,2.37
2019-03-02T09:28:35.188Z,2.32
2019-03-02T09:29:45.115Z,2.3
2019-03-02T09:30:58.722Z,2.28
2019-03-02T09:32:14.078Z,2.36
2019-03-02T09:33:28.622Z,2.3
2019-03-02T09:34:42.971Z,2.21
2019-03-02T09:35:59.799Z,2.26
2019-03-02T09:37:11.939Z,2.19
2019-03-02T09:38:25.679Z,2.22
2019-03-02T09:39:39.823Z,2.4
2019-03-02T09:40:51.594Z,2.32
2019-03-02T09:42:03.999Z,2.4
2019-03-02T09:43:16.140Z,2.36
2019-03-02T09:44:26.301Z,2.39
2019-03-02T09:45:38.038Z,2.46
2019-03-02T09:46:50.091Z,2.51
2019-03-02T09:48:00.076Z,2.54
2019-03-02T09:49:12.153Z,2.61
2019-03-02T09:50:24.157Z,2.58
2019-03-02T09:51:34.083Z,2.69
2019-03-02T09:52:45.712Z,2.65
2019-03-02T09:53:55.725Z,2.57
2019-03-02T09:55:05.648Z,2.59
2019-03-02T09:56:16.017Z,2.68
2019-03-02T09:57:26.054Z,2.61
2019-03-02T09:58:37.456Z,2.59
2019-03-02T09:59:50.375Z,2.64
2019-03-02T10:01:06.951Z,2.62
2019-03-02T10:02:19.334Z,2.77
2019-03-02T10:03:32.466Z,2.76
2019-03-02T10:04:44.264Z,2.77
2019-03-02T10:05:54.873Z,2.83
2019-03-02T10:07:06.937Z,2.9
2019-03-02T10:08:18.275Z,2.88
2019-03-02T10:09:31.359Z,2.98
2019-03-02T10:10:41.415Z,2.95
2019-03-02T10:11:51.363Z,2.98
2019-03-02T10:13:01.416Z,3.03
2019-03-02T10:14:13.415Z,3.19
2019-03-02T10:15:29.205Z,3.13
2019-03-02T10:16:39.158Z,3.29
2019-03-02T10:17:49.098Z,3.31
2019-03-02T10:18:58.826Z,3.33
2019-03-02T10:20:10.037Z,3.45
2019-03-02T10:21:19.958Z,3.48
2019-03-02T10:22:29.874Z,3.46
2019-03-02T10:23:44.594Z,3.45
2019-03-02T10:24:57.674Z,3.58
2019-03-02T10:26:10.041Z,3.55
2019-03-02T10:27:23.572Z,3.55
2019-03-02T10:28:36.655Z,3.59
2019-03-02T10:29:50.849Z,3.61
2019-03-02T10:31:02.482Z,3.56
2019-03-02T10:32:13.803Z,3.61
2019-03-02T10:33:24.841Z,3.71
2019-03-02T10:34:41.844Z,3.78
2019-03-02T10:35:55.823Z,3.92
2019-03-02T10:37:09.788Z,3.92
2019-03-02T10:38:23.506Z,3.92
2019-03-02T10:39:35.204Z,4.02
2019-03-02T10:40:47.538Z,3.91
2019-03-02T10:42:00.581Z,3.94
2019-03-02T10:43:14.145Z,3.91
2019-03-02T10:44:26.162Z,3.99
2019-03-02T10:45:36.215Z,4.16
2019-03-02T10:46:46.140Z,4.16
2019-03-02T10:47:56.640Z,4.2
2019-03-02T10:49:09.875Z,4.25
2019-03-02T10:50:23.202Z,4.27
2019-03-02T10:51:37.483Z,4.22
2019-03-02T10:52:51.439Z,4.25
2019-03-02T10:54:04.401Z,4.25
2019-03-02T10:55:17.158Z,4.22
2019-03-02T10:56:30.568Z,4.21
2019-03-02T10:57:41.854Z,4.22
2019-03-02T10:58:51.771Z,4.28
2019-03-02T11:00:01.705Z,4.38
2019-03-02T11:01:12.185Z,4.32
2019-03-02T11:02:25.896Z,4.56
2019-03-02T11:03:36.683Z,4.45
2019-03-02T11:04:49.491Z,4.43
2019-03-02T11:06:01.913Z,4.45
2019-03-02T11:07:15.366Z,4.5
2019-03-02T11:08:28.036Z,4.4
2019-03-02T11:09:42.316Z,4.5
2019-03-02T11:10:55.557Z,4.61
2019-03-02T11:12:09.328Z,4.5
2019-03-02T11:13:21.775Z,4.6
2019-03-02T11:14:34.487Z,4.6
2019-03-02T11:15:48.431Z,4.58
2019-03-02T11:17:01.524Z,4.6
2019-03-02T11:18:11.569Z,4.61
2019-03-02T11:19:21.489Z,4.6
2019-03-02T11:20:31.424Z,4.58
2019-03-02T11:21:41.347Z,4.7
2019-03-02T11:22:51.020Z,4.83
2019-03-02T11:24:02.393Z,5.07
2019-03-02T11:25:12.316Z,5.23
2019-03-02T11:26:22.338Z,5.52
2019-03-02T11:27:32.264Z,6.13
2019-03-02T11:28:42.187Z,6.57
2019-03-02T11:29:55.831Z,6.77
2019-03-02T11:31:05.756Z,6.8
2019-03-02T11:32:20.288Z,6.59
2019-03-02T11:33:33.570Z,6.49
2019-03-02T11:34:43.500Z,6.35
2019-03-02T11:35:53.428Z,6.26
2019-03-02T11:37:03.352Z,6.22
2019-03-02T11:38:13.276Z,6.12
2019-03-02T11:39:23.217Z,6.12
2019-03-02T11:40:35.588Z,5.95
2019-03-02T11:41:45.514Z,5.83
2019-03-02T11:42:55.442Z,5.83
2019-03-02T11:44:07.196Z,5.77
2019-03-02T11:45:16.866Z,5.69
2019-03-02T11:46:26.791Z,5.72
2019-03-02T11:47:39.094Z,5.83
2019-03-02T11:48:59.589Z,5.87
2019-03-02T11:50:10.730Z,5.98
2019-03-02T11:51:23.934Z,5.88
2019-03-02T11:52:38.533Z,5.77
2019-03-02T11:53:51.988Z,5.77
2019-03-02T11:55:06.780Z,5.76
2019-03-02T11:56:27.486Z,5.88
2019-03-02T11:57:37.454Z,5.9
2019-03-02T11:58:47.383Z,5.99
2019-03-02T11:59:57.308Z,6.01
2019-03-02T12:01:08.192Z,6.06
2019-03-02T12:02:23.758Z,6.02
2019-03-02T12:03:38.973Z,6.02
2019-03-02T12:04:52.168Z,5.97
2019-03-02T12:06:10.313Z,5.94
2019-03-02T12:07:19.743Z,5.91
2019-03-02T12:08:29.678Z,5.97
2019-03-02T12:09:39.595Z,5.95
2019-03-02T12:10:49.283Z,5.9
2019-03-02T12:11:59.310Z,5.87
2019-03-02T12:13:09.242Z,5.83
2019-03-02T12:14:19.165Z,5.81
2019-03-02T12:15:29.877Z,5.73
2019-03-02T12:16:40.733Z,5.74
2019-03-02T12:17:50.655Z,5.73
2019-03-02T12:19:05.069Z,5.64
2019-03-02T12:20:16.781Z,5.65
2019-03-02T12:21:26.969Z,5.7
2019-03-02T12:22:40.183Z,5.62
2019-03-02T12:23:50.208Z,5.59
2019-03-02T12:25:03.309Z,5.56
2019-03-02T12:26:15.891Z,5.46
2019-03-02T12:27:27.209Z,5.4
2019-03-02T12:28:40.117Z,5.36
2019-03-02T12:29:52.165Z,5.26
2019-03-02T12:31:02.093Z,5.36
2019-03-02T12:32:13.534Z,5.2
2019-03-02T12:33:25.582Z,5.34
2019-03-02T12:34:39.206Z,5.26
2019-03-02T12:35:49.231Z,5.31
2019-03-02T12:36:59.377Z,5.22
2019-03-02T12:38:15.277Z,5.22
2019-03-02T12:39:28.914Z,5.23
2019-03-02T12:40:42.709Z,5.08
2019-03-02T12:41:55.170Z,5.22
2019-03-02T12:43:10.050Z,5.13
2019-03-02T12:44:23.893Z,5.19
2019-03-02T12:45:36.291Z,5.08
2019-03-02T12:46:47.863Z,4.98
2019-03-02T12:48:05.048Z,5.1
2019-03-02T12:49:15.975Z,5.07
2019-03-02T12:50:28.248Z,5.01
2019-03-02T12:51:42.053Z,5.18
2019-03-02T12:52:54.244Z,5.16
2019-03-02T12:54:09.156Z,5.18
2019-03-02T12:55:23.160Z,5.25
2019-03-02T12:56:35.428Z,5.23
2019-03-02T12:57:50.386Z,5.23
2019-03-02T12:59:06.406Z,5.29
2019-03-02T13:00:16.332Z,5.34
2019-03-02T13:01:26.002Z,5.46
2019-03-02T13:02:41.501Z,5.47
2019-03-02T13:03:56.587Z,5.54
2019-03-02T13:05:06.536Z,5.69
2019-03-02T13:06:16.461Z,5.79
2019-03-02T13:07:26.383Z,5.79
2019-03-02T13:08:37.429Z,5.87
2019-03-02T13:09:47.352Z,5.94
2019-03-02T13:10:58.189Z,6.28
2019-03-02T13:12:12.211Z,6.35
2019-03-02T13:13:25.646Z,6.47
2019-03-02T13:14:38.706Z,6.6
2019-03-02T13:15:50.950Z,7.04
2019-03-02T13:17:06.084Z,7.23
2019-03-02T13:18:19.019Z,7.33
2019-03-02T13:19:31.671Z,7.46
2019-03-02T13:20:44.452Z,7.55
2019-03-02T13:21:56.590Z,7.64
2019-03-02T13:23:09.161Z,7.85
2019-03-02T13:24:25.082Z,7.96
2019-03-02T13:25:39.045Z,8.17
2019-03-02T13:26:52.018Z,8.21
2019-03-02T13:28:07.589Z,8.24
2019-03-02T13:29:18.895Z,8.23
2019-03-02T13:30:32.108Z,8.2
2019-03-02T13:31:46.246Z,8.2
2019-03-02T13:32:58.521Z,8.03
2019-03-02T13:34:11.532Z,7.93
2019-03-02T13:35:26.039Z,7.88
2019-03-02T13:36:36.088Z,7.75
2019-03-02T13:37:52.938Z,7.74
2019-03-02T13:39:06.294Z,7.56
2019-03-02T13:40:26.245Z,7.51
2019-03-02T13:41:38.833Z,7.5
2019-03-02T13:42:55.925Z,7.37
2019-03-02T13:44:12.162Z,7.28
2019-03-02T13:45:24.071Z,7.19
2019-03-02T13:46:37.536Z,7.21
2019-03-02T13:47:51.285Z,7.11
2019-03-02T13:49:04.265Z,6.97
2019-03-02T13:50:16.462Z,7.05
2019-03-02T13:51:32.580Z,6.83
2019-03-02T13:52:48.444Z,6.56
2019-03-02T13:54:05.487Z,6.52
2019-03-02T13:55:18.445Z,6.59
2019-03-02T13:56:32.551Z,6.5
2019-03-02T13:57:46.290Z,6.46
2019-03-02T13:58:59.534Z,6.44
2019-03-02T14:00:12.779Z,6.43
2019-03-02T14:01:27.888Z,6.47
2019-03-02T14:02:42.739Z,6.5
2019-03-02T14:03:56.072Z,6.52
2019-03-02T14:05:11.681Z,6.5
2019-03-02T14:06:24.339Z,6.43
2019-03-02T14:07:36.141Z,6.49
2019-03-02T14:08:48.408Z,6.38
2019-03-02T14:09:58.326Z,6.41
2019-03-02T14:11:08.263Z,6.07
2019-03-02T14:12:22.403Z,5.77
2019-03-02T14:13:35.445Z,5.52
2019-03-02T14:14:47.345Z,5.29
2019-03-02T14:16:02.074Z,5.26
2019-03-02T14:17:14.358Z,5.13
2019-03-02T14:18:28.398Z,5.12
2019-03-02T14:19:41.425Z,5.04
2019-03-02T14:20:57.802Z,5.01
2019-03-02T14:22:11.263Z,4.98
2019-03-02T14:23:25.982Z,5.01
2019-03-02T14:24:46.849Z,5.01
2019-03-02T14:26:02.799Z,5.05
2019-03-02T14:27:12.745Z,5.02
2019-03-02T14:28:22.427Z,5.12
2019-03-02T14:29:35.946Z,4.98
2019-03-02T14:30:48.215Z,4.97
2019-03-02T14:32:02.507Z,5.05
2019-03-02T14:33:15.424Z,5
2019-03-02T14:34:25.349Z,4.97
2019-03-02T14:35:37.241Z,4.94
2019-03-02T14:36:47.253Z,4.84
2019-03-02T14:37:57.175Z,4.78
2019-03-02T14:39:07.598Z,4.92
2019-03-02T14:40:19.495Z,4.78
2019-03-02T14:41:33.690Z,4.84
2019-03-02T14:42:45.895Z,4.86
2019-03-02T14:43:59.766Z,4.83
2019-03-02T14:45:12.292Z,4.83
2019-03-02T14:46:26.001Z,4.86
2019-03-02T14:47:39.123Z,4.83
2019-03-02T14:48:51.866Z,4.86
2019-03-02T14:50:08.307Z,4.83
2019-03-02T14:51:20.570Z,4.89
2019-03-02T14:52:35.783Z,4.79
2019-03-02T14:53:47.636Z,4.84
2019-03-02T14:54:59.406Z,4.86
2019-03-02T14:56:13.781Z,4.83
2019-03-02T14:57:27.236Z,4.86
2019-03-02T14:58:40.248Z,4.79
2019-03-02T14:59:52.798Z,4.66
2019-03-02T15:01:05.393Z,4.56
2019-03-02T15:02:19.147Z,4.53
2019-03-02T15:03:33.938Z,4.32
2019-03-02T15:04:47.754Z,4.28
2019-03-02T15:06:08.508Z,4.07
2019-03-02T15:07:24.875Z,4.02
2019-03-02T15:08:39.948Z,3.89
2019-03-02T15:09:52.181Z,3.84
2019-03-02T15:11:06.017Z,3.81
2019-03-02T15:12:18.587Z,3.82
2019-03-02T15:13:32.044Z,3.91
2019-03-02T15:14:45.065Z,3.81
2019-03-02T15:15:58.621Z,3.81
2019-03-02T15:17:12.167Z,3.81
2019-03-02T15:18:30.130Z,3.82
2019-03-02T15:19:55.892Z,3.81
2019-03-02T15:21:07.637Z,3.77
2019-03-02T15:22:24.127Z,3.73
2019-03-02T15:23:38.843Z,3.81
2019-03-02T15:24:55.889Z,3.82
2019-03-02T15:26:08.909Z,3.92
2019-03-02T15:27:22.709Z,4.06
2019-03-02T15:28:39.858Z,4.03
2019-03-02T15:29:52.834Z,4.04
2019-03-02T15:31:06.617Z,4.07
2019-03-02T15:32:20.175Z,4.2
2019-03-02T15:33:33.559Z,4.21
2019-03-02T15:34:57.799Z,4.14
2019-03-02T15:36:10.956Z,4.16
2019-03-02T15:37:24.160Z,4.25
2019-03-02T15:38:36.082Z,4.16
2019-03-02T15:39:53.446Z,4.12
2019-03-02T15:41:05.180Z,4.14
2019-03-02T15:42:21.203Z,4.04
2019-03-02T15:43:34.720Z,3.91
2019-03-02T15:44:50.920Z,3.78
2019-03-02T15:46:03.852Z,3.77
2019-03-02T15:47:16.483Z,3.73
2019-03-02T15:48:31.566Z,3.7
2019-03-02T15:49:45.180Z,3.61
2019-03-02T15:50:59.164Z,3.64
2019-03-02T15:52:12.489Z,3.61
2019-03-02T15:53:25.206Z,3.61